sensor_id;sensor_type;location;lat;lon;timestamp;P1;durP1;ratioP1;P2;durP2;ratioP2
43823;SDS011;29470;53.550;9.926;2023-10-09T00:03:11;4.10;;;2.30;;
43823;SDS011;29470;53.550;9.926;2023-10-09T00:08:16;6.10;;;2.58;;
43823;SDS011;29470;53.550;9.926;2023-10-09T00:18:30;5.43;;;2.22;;
43823;SDS011;29470;53.550;9.926;2023-10-09T00:23:37;6.28;;;2.40;;
43823;SDS011;29470;53.550;9.926;2023-10-09T00:28:40;5.45;;;1.90;;
43823;SDS011;29470;53.550;9.926;2023-10-09T00:33:45;7.07;;;2.17;;
43823;SDS011;29470;53.550;9.926;2023-10-09T00:38:49;7.90;;;2.53;;
43823;SDS011;29470;53.550;9.926;2023-10-09T00:43:53;5.32;;;2.40;;
43823;SDS011;29470;53.550;9.926;2023-10-09T00:49:00;4.90;;;2.37;;
43823;SDS011;29470;53.550;9.926;2023-10-09T00:54:06;6.75;;;2.33;;
43823;SDS011;29470;53.550;9.926;2023-10-09T00:59:16;6.88;;;2.65;;
43823;SDS011;29470;53.550;9.926;2023-10-09T01:04:22;8.40;;;3.10;;
43823;SDS011;29470;53.550;9.926;2023-10-09T01:09:29;9.02;;;3.25;;
43823;SDS011;29470;53.550;9.926;2023-10-09T01:14:37;10.60;;;3.20;;
43823;SDS011;29470;53.550;9.926;2023-10-09T01:19:42;4.47;;;2.67;;
43823;SDS011;29470;53.550;9.926;2023-10-09T01:24:47;7.93;;;3.00;;
43823;SDS011;29470;53.550;9.926;2023-10-09T01:29:52;6.75;;;2.90;;
43823;SDS011;29470;53.550;9.926;2023-10-09T01:34:55;6.45;;;2.80;;
43823;SDS011;29470;53.550;9.926;2023-10-09T01:40:02;10.00;;;2.25;;
43823;SDS011;29470;53.550;9.926;2023-10-09T01:45:27;4.40;;;1.65;;
43823;SDS011;29470;53.550;9.926;2023-10-09T01:50:44;5.57;;;1.92;;
43823;SDS011;29470;53.550;9.926;2023-10-09T01:55:52;4.70;;;1.80;;
43823;SDS011;29470;53.550;9.926;2023-10-09T02:00:57;3.38;;;1.60;;
43823;SDS011;29470;53.550;9.926;2023-10-09T02:06:03;4.03;;;1.80;;
43823;SDS011;29470;53.550;9.926;2023-10-09T02:11:27;5.65;;;1.83;;
43823;SDS011;29470;53.550;9.926;2023-10-09T02:16:43;4.70;;;1.80;;
43823;SDS011;29470;53.550;9.926;2023-10-09T02:21:45;4.03;;;1.77;;
43823;SDS011;29470;53.550;9.926;2023-10-09T02:26:51;4.97;;;2.10;;
43823;SDS011;29470;53.550;9.926;2023-10-09T02:32:20;6.47;;;2.05;;
43823;SDS011;29470;53.550;9.926;2023-10-09T02:37:28;4.88;;;1.85;;
43823;SDS011;29470;53.550;9.926;2023-10-09T02:42:31;4.15;;;1.92;;
43823;SDS011;29470;53.550;9.926;2023-10-09T02:47:36;6.68;;;2.03;;
43823;SDS011;29470;53.550;9.926;2023-10-09T02:52:41;4.15;;;2.08;;
43823;SDS011;29470;53.550;9.926;2023-10-09T02:57:43;7.00;;;2.28;;
43823;SDS011;29470;53.550;9.926;2023-10-09T03:02:48;4.20;;;1.83;;
43823;SDS011;29470;53.550;9.926;2023-10-09T03:07:52;5.93;;;2.10;;
43823;SDS011;29470;53.550;9.926;2023-10-09T03:12:55;4.85;;;2.13;;
43823;SDS011;29470;53.550;9.926;2023-10-09T03:18:03;6.20;;;2.20;;
43823;SDS011;29470;53.550;9.926;2023-10-09T03:23:06;5.18;;;2.20;;
43823;SDS011;29470;53.550;9.926;2023-10-09T03:28:11;4.32;;;1.98;;
43823;SDS011;29470;53.550;9.926;2023-10-09T03:33:18;6.07;;;2.35;;
43823;SDS011;29470;53.550;9.926;2023-10-09T03:38:21;4.38;;;1.83;;
43823;SDS011;29470;53.550;9.926;2023-10-09T03:43:23;4.68;;;1.80;;
43823;SDS011;29470;53.550;9.926;2023-10-09T03:48:28;4.35;;;2.05;;
43823;SDS011;29470;53.550;9.926;2023-10-09T03:53:34;5.13;;;2.13;;
43823;SDS011;29470;53.550;9.926;2023-10-09T03:58:39;6.63;;;1.85;;
43823;SDS011;29470;53.550;9.926;2023-10-09T04:03:45;5.90;;;1.95;;
43823;SDS011;29470;53.550;9.926;2023-10-09T04:08:48;5.82;;;1.88;;
43823;SDS011;29470;53.550;9.926;2023-10-09T04:13:53;4.70;;;1.90;;
43823;SDS011;29470;53.550;9.926;2023-10-09T04:18:58;4.70;;;1.63;;
43823;SDS011;29470;53.550;9.926;2023-10-09T04:24:07;3.65;;;1.80;;
43823;SDS011;29470;53.550;9.926;2023-10-09T04:29:24;5.53;;;2.30;;
43823;SDS011;29470;53.550;9.926;2023-10-09T04:34:40;6.82;;;2.50;;
43823;SDS011;29470;53.550;9.926;2023-10-09T04:39:49;5.18;;;2.47;;
43823;SDS011;29470;53.550;9.926;2023-10-09T04:45:03;5.32;;;3.03;;
43823;SDS011;29470;53.550;9.926;2023-10-09T04:50:50;3.88;;;2.20;;
43823;SDS011;29470;53.550;9.926;2023-10-09T04:56:07;6.25;;;2.45;;
43823;SDS011;29470;53.550;9.926;2023-10-09T05:01:16;4.57;;;2.30;;
43823;SDS011;29470;53.550;9.926;2023-10-09T05:06:39;5.60;;;2.72;;
43823;SDS011;29470;53.550;9.926;2023-10-09T05:11:57;5.15;;;2.22;;
43823;SDS011;29470;53.550;9.926;2023-10-09T05:17:17;5.25;;;1.90;;
43823;SDS011;29470;53.550;9.926;2023-10-09T05:22:28;4.32;;;1.85;;
43823;SDS011;29470;53.550;9.926;2023-10-09T05:27:39;4.45;;;2.15;;
43823;SDS011;29470;53.550;9.926;2023-10-09T05:32:55;4.63;;;1.98;;
43823;SDS011;29470;53.550;9.926;2023-10-09T05:38:02;7.55;;;2.33;;
43823;SDS011;29470;53.550;9.926;2023-10-09T05:43:16;5.93;;;2.33;;
43823;SDS011;29470;53.550;9.926;2023-10-09T05:48:33;3.90;;;2.15;;
43823;SDS011;29470;53.550;9.926;2023-10-09T05:54:11;4.25;;;2.30;;
43823;SDS011;29470;53.550;9.926;2023-10-09T05:59:25;6.35;;;2.90;;
43823;SDS011;29470;53.550;9.926;2023-10-09T06:05:12;6.18;;;2.90;;
43823;SDS011;29470;53.550;9.926;2023-10-09T06:10:30;6.30;;;2.72;;
43823;SDS011;29470;53.550;9.926;2023-10-09T06:15:41;7.10;;;3.17;;
43823;SDS011;29470;53.550;9.926;2023-10-09T06:21:10;8.18;;;3.53;;
43823;SDS011;29470;53.550;9.926;2023-10-09T06:26:29;7.75;;;3.38;;
43823;SDS011;29470;53.550;9.926;2023-10-09T06:31:34;5.00;;;3.20;;
43823;SDS011;29470;53.550;9.926;2023-10-09T06:36:59;5.57;;;3.13;;
43823;SDS011;29470;53.550;9.926;2023-10-09T06:42:08;9.55;;;3.45;;
43823;SDS011;29470;53.550;9.926;2023-10-09T06:47:31;7.75;;;4.43;;
43823;SDS011;29470;53.550;9.926;2023-10-09T06:52:42;6.60;;;3.47;;
43823;SDS011;29470;53.550;9.926;2023-10-09T06:58:28;5.93;;;2.92;;
43823;SDS011;29470;53.550;9.926;2023-10-09T07:03:42;7.43;;;3.38;;
43823;SDS011;29470;53.550;9.926;2023-10-09T07:08:54;7.30;;;3.17;;
43823;SDS011;29470;53.550;9.926;2023-10-09T07:14:19;5.53;;;2.85;;
43823;SDS011;29470;53.550;9.926;2023-10-09T07:19:54;6.55;;;3.60;;
43823;SDS011;29470;53.550;9.926;2023-10-09T07:25:15;4.13;;;2.88;;
43823;SDS011;29470;53.550;9.926;2023-10-09T07:30:30;4.45;;;2.95;;
43823;SDS011;29470;53.550;9.926;2023-10-09T07:35:40;4.85;;;2.80;;
43823;SDS011;29470;53.550;9.926;2023-10-09T07:40:50;4.90;;;2.72;;
43823;SDS011;29470;53.550;9.926;2023-10-09T07:46:03;5.20;;;3.03;;
43823;SDS011;29470;53.550;9.926;2023-10-09T07:51:26;4.72;;;2.70;;
43823;SDS011;29470;53.550;9.926;2023-10-09T07:56:33;5.30;;;3.10;;
43823;SDS011;29470;53.550;9.926;2023-10-09T08:01:42;5.93;;;2.80;;
43823;SDS011;29470;53.550;9.926;2023-10-09T08:06:54;4.75;;;3.00;;
43823;SDS011;29470;53.550;9.926;2023-10-09T08:12:19;5.03;;;3.05;;
43823;SDS011;29470;53.550;9.926;2023-10-09T08:17:40;6.15;;;3.72;;
43823;SDS011;29470;53.550;9.926;2023-10-09T08:22:49;5.90;;;3.95;;
43823;SDS011;29470;53.550;9.926;2023-10-09T08:27:54;5.13;;;3.30;;
43823;SDS011;29470;53.550;9.926;2023-10-09T08:33:00;4.97;;;3.47;;
43823;SDS011;29470;53.550;9.926;2023-10-09T08:38:28;5.88;;;4.00;;
43823;SDS011;29470;53.550;9.926;2023-10-09T08:43:34;8.60;;;4.88;;
43823;SDS011;29470;53.550;9.926;2023-10-09T08:48:43;8.30;;;4.90;;
43823;SDS011;29470;53.550;9.926;2023-10-09T08:53:47;7.25;;;4.05;;
43823;SDS011;29470;53.550;9.926;2023-10-09T08:58:50;4.55;;;3.60;;
43823;SDS011;29470;53.550;9.926;2023-10-09T09:03:56;7.28;;;4.07;;
43823;SDS011;29470;53.550;9.926;2023-10-09T09:09:09;5.65;;;3.63;;
43823;SDS011;29470;53.550;9.926;2023-10-09T09:14:15;5.53;;;3.38;;
43823;SDS011;29470;53.550;9.926;2023-10-09T09:19:30;6.80;;;4.37;;
43823;SDS011;29470;53.550;9.926;2023-10-09T09:24:34;6.05;;;4.10;;
43823;SDS011;29470;53.550;9.926;2023-10-09T09:29:38;5.47;;;3.80;;
43823;SDS011;29470;53.550;9.926;2023-10-09T09:34:45;6.30;;;4.10;;
43823;SDS011;29470;53.550;9.926;2023-10-09T09:39:50;6.28;;;3.63;;
43823;SDS011;29470;53.550;9.926;2023-10-09T09:44:56;5.47;;;3.50;;
43823;SDS011;29470;53.550;9.926;2023-10-09T09:50:03;4.60;;;3.05;;
43823;SDS011;29470;53.550;9.926;2023-10-09T09:55:28;5.38;;;3.40;;
43823;SDS011;29470;53.550;9.926;2023-10-09T10:00:36;5.25;;;3.40;;
43823;SDS011;29470;53.550;9.926;2023-10-09T10:05:46;3.90;;;2.88;;
43823;SDS011;29470;53.550;9.926;2023-10-09T10:10:52;4.03;;;2.63;;
43823;SDS011;29470;53.550;9.926;2023-10-09T10:16:05;3.55;;;2.38;;
43823;SDS011;29470;53.550;9.926;2023-10-09T10:21:17;4.13;;;2.63;;
43823;SDS011;29470;53.550;9.926;2023-10-09T10:26:30;3.58;;;2.67;;
43823;SDS011;29470;53.550;9.926;2023-10-09T10:31:54;3.47;;;2.45;;
43823;SDS011;29470;53.550;9.926;2023-10-09T10:37:00;3.58;;;2.30;;
43823;SDS011;29470;53.550;9.926;2023-10-09T10:42:09;4.97;;;2.67;;
43823;SDS011;29470;53.550;9.926;2023-10-09T10:47:17;3.53;;;2.77;;
43823;SDS011;29470;53.550;9.926;2023-10-09T10:52:35;4.10;;;2.25;;
43823;SDS011;29470;53.550;9.926;2023-10-09T10:57:44;3.15;;;2.20;;
43823;SDS011;29470;53.550;9.926;2023-10-09T11:02:56;3.55;;;1.90;;
43823;SDS011;29470;53.550;9.926;2023-10-09T11:08:16;4.00;;;2.03;;
43823;SDS011;29470;53.550;9.926;2023-10-09T11:13:23;2.55;;;1.77;;
43823;SDS011;29470;53.550;9.926;2023-10-09T11:18:37;3.45;;;2.42;;
43823;SDS011;29470;53.550;9.926;2023-10-09T11:23:46;4.18;;;2.63;;
43823;SDS011;29470;53.550;9.926;2023-10-09T11:29:21;2.80;;;2.08;;
43823;SDS011;29470;53.550;9.926;2023-10-09T11:35:09;2.75;;;2.30;;
43823;SDS011;29470;53.550;9.926;2023-10-09T11:40:30;3.80;;;2.20;;
43823;SDS011;29470;53.550;9.926;2023-10-09T11:45:49;3.15;;;2.30;;
43823;SDS011;29470;53.550;9.926;2023-10-09T11:50:56;3.28;;;2.40;;
43823;SDS011;29470;53.550;9.926;2023-10-09T11:56:22;7.15;;;4.10;;
43823;SDS011;29470;53.550;9.926;2023-10-09T12:01:28;3.78;;;2.60;;
43823;SDS011;29470;53.550;9.926;2023-10-09T12:06:37;6.45;;;2.42;;
43823;SDS011;29470;53.550;9.926;2023-10-09T12:11:45;3.55;;;2.60;;
43823;SDS011;29470;53.550;9.926;2023-10-09T12:17:04;4.05;;;2.70;;
43823;SDS011;29470;53.550;9.926;2023-10-09T12:22:08;4.00;;;2.65;;
43823;SDS011;29470;53.550;9.926;2023-10-09T12:27:21;4.43;;;2.72;;
43823;SDS011;29470;53.550;9.926;2023-10-09T12:32:26;3.95;;;3.17;;
43823;SDS011;29470;53.550;9.926;2023-10-09T12:37:29;4.88;;;3.25;;
43823;SDS011;29470;53.550;9.926;2023-10-09T12:42:34;4.65;;;3.55;;
43823;SDS011;29470;53.550;9.926;2023-10-09T12:47:37;5.63;;;3.83;;
43823;SDS011;29470;53.550;9.926;2023-10-09T12:52:40;5.53;;;3.55;;
43823;SDS011;29470;53.550;9.926;2023-10-09T12:57:45;6.03;;;4.10;;
43823;SDS011;29470;53.550;9.926;2023-10-09T13:02:49;5.55;;;4.18;;
43823;SDS011;29470;53.550;9.926;2023-10-09T13:07:52;7.03;;;4.35;;
43823;SDS011;29470;53.550;9.926;2023-10-09T13:12:58;6.95;;;4.20;;
43823;SDS011;29470;53.550;9.926;2023-10-09T13:18:01;5.57;;;3.90;;
43823;SDS011;29470;53.550;9.926;2023-10-09T13:23:08;5.60;;;3.85;;
43823;SDS011;29470;53.550;9.926;2023-10-09T13:28:17;5.28;;;3.53;;
43823;SDS011;29470;53.550;9.926;2023-10-09T13:33:22;5.40;;;3.80;;
43823;SDS011;29470;53.550;9.926;2023-10-09T13:38:25;6.63;;;4.22;;
43823;SDS011;29470;53.550;9.926;2023-10-09T13:43:29;8.10;;;4.70;;
43823;SDS011;29470;53.550;9.926;2023-10-09T13:48:32;5.97;;;4.15;;
43823;SDS011;29470;53.550;9.926;2023-10-09T13:53:55;7.20;;;5.05;;
43823;SDS011;29470;53.550;9.926;2023-10-09T13:59:04;8.48;;;5.88;;
43823;SDS011;29470;53.550;9.926;2023-10-09T14:04:14;6.82;;;5.40;;
43823;SDS011;29470;53.550;9.926;2023-10-09T14:09:22;8.23;;;6.05;;
43823;SDS011;29470;53.550;9.926;2023-10-09T14:14:41;8.45;;;5.68;;
43823;SDS011;29470;53.550;9.926;2023-10-09T14:19:49;8.45;;;5.88;;
43823;SDS011;29470;53.550;9.926;2023-10-09T14:25:04;7.85;;;5.68;;
43823;SDS011;29470;53.550;9.926;2023-10-09T14:30:20;9.07;;;6.15;;
43823;SDS011;29470;53.550;9.926;2023-10-09T14:35:35;7.47;;;5.97;;
43823;SDS011;29470;53.550;9.926;2023-10-09T14:45:46;8.10;;;5.95;;
43823;SDS011;29470;53.550;9.926;2023-10-09T14:50:51;7.28;;;5.65;;
43823;SDS011;29470;53.550;9.926;2023-10-09T14:55:57;8.73;;;6.15;;
43823;SDS011;29470;53.550;9.926;2023-10-09T15:01:09;8.90;;;6.15;;
43823;SDS011;29470;53.550;9.926;2023-10-09T15:11:22;9.48;;;6.43;;
43823;SDS011;29470;53.550;9.926;2023-10-09T15:16:27;8.63;;;6.25;;
43823;SDS011;29470;53.550;9.926;2023-10-09T15:21:32;10.23;;;6.90;;
43823;SDS011;29470;53.550;9.926;2023-10-09T15:26:35;8.93;;;7.25;;
43823;SDS011;29470;53.550;9.926;2023-10-09T15:31:40;12.45;;;8.05;;
43823;SDS011;29470;53.550;9.926;2023-10-09T15:36:43;10.45;;;7.18;;
43823;SDS011;29470;53.550;9.926;2023-10-09T15:41:48;10.43;;;5.63;;
43823;SDS011;29470;53.550;9.926;2023-10-09T15:46:53;10.68;;;5.35;;
43823;SDS011;29470;53.550;9.926;2023-10-09T15:52:01;16.85;;;9.82;;
43823;SDS011;29470;53.550;9.926;2023-10-09T15:57:04;8.20;;;4.45;;
43823;SDS011;29470;53.550;9.926;2023-10-09T16:02:32;7.53;;;3.92;;
43823;SDS011;29470;53.550;9.926;2023-10-09T16:07:35;7.80;;;2.47;;
43823;SDS011;29470;53.550;9.926;2023-10-09T16:12:40;6.40;;;2.83;;
43823;SDS011;29470;53.550;9.926;2023-10-09T16:17:47;6.22;;;2.90;;
43823;SDS011;29470;53.550;9.926;2023-10-09T16:23:19;8.40;;;4.00;;
43823;SDS011;29470;53.550;9.926;2023-10-09T16:28:22;8.25;;;3.33;;
43823;SDS011;29470;53.550;9.926;2023-10-09T16:33:27;12.55;;;3.97;;
43823;SDS011;29470;53.550;9.926;2023-10-09T16:38:30;4.78;;;1.83;;
43823;SDS011;29470;53.550;9.926;2023-10-09T16:43:37;7.65;;;2.65;;
43823;SDS011;29470;53.550;9.926;2023-10-09T16:48:45;5.28;;;1.70;;
43823;SDS011;29470;53.550;9.926;2023-10-09T16:53:53;3.95;;;1.58;;
43823;SDS011;29470;53.550;9.926;2023-10-09T16:58:57;2.42;;;1.13;;
43823;SDS011;29470;53.550;9.926;2023-10-09T17:04:03;5.20;;;1.40;;
43823;SDS011;29470;53.550;9.926;2023-10-09T17:09:06;3.65;;;1.35;;
43823;SDS011;29470;53.550;9.926;2023-10-09T17:14:09;2.47;;;1.48;;
43823;SDS011;29470;53.550;9.926;2023-10-09T17:19:16;5.22;;;1.42;;
43823;SDS011;29470;53.550;9.926;2023-10-09T17:24:18;4.15;;;2.13;;
43823;SDS011;29470;53.550;9.926;2023-10-09T17:29:22;3.78;;;1.80;;
43823;SDS011;29470;53.550;9.926;2023-10-09T17:34:26;7.03;;;2.50;;
43823;SDS011;29470;53.550;9.926;2023-10-09T17:39:32;4.38;;;2.30;;
43823;SDS011;29470;53.550;9.926;2023-10-09T17:44:35;5.60;;;2.30;;
43823;SDS011;29470;53.550;9.926;2023-10-09T17:49:41;4.43;;;1.23;;
43823;SDS011;29470;53.550;9.926;2023-10-09T17:54:44;3.80;;;1.10;;
43823;SDS011;29470;53.550;9.926;2023-10-09T17:59:47;2.78;;;1.30;;
43823;SDS011;29470;53.550;9.926;2023-10-09T18:04:52;6.28;;;1.50;;
43823;SDS011;29470;53.550;9.926;2023-10-09T18:09:55;5.20;;;1.88;;
43823;SDS011;29470;53.550;9.926;2023-10-09T18:15:00;5.85;;;1.75;;
43823;SDS011;29470;53.550;9.926;2023-10-09T18:20:08;4.35;;;1.70;;
43823;SDS011;29470;53.550;9.926;2023-10-09T18:25:12;6.80;;;2.65;;
43823;SDS011;29470;53.550;9.926;2023-10-09T18:30:16;6.80;;;2.92;;
43823;SDS011;29470;53.550;9.926;2023-10-09T18:35:21;5.50;;;2.42;;
43823;SDS011;29470;53.550;9.926;2023-10-09T18:40:24;2.65;;;1.48;;
43823;SDS011;29470;53.550;9.926;2023-10-09T18:45:32;2.53;;;1.52;;
43823;SDS011;29470;53.550;9.926;2023-10-09T18:50:38;1.95;;;1.00;;
43823;SDS011;29470;53.550;9.926;2023-10-09T18:55:43;2.17;;;1.20;;
43823;SDS011;29470;53.550;9.926;2023-10-09T19:00:46;3.13;;;1.27;;
43823;SDS011;29470;53.550;9.926;2023-10-09T19:05:53;2.75;;;1.15;;
43823;SDS011;29470;53.550;9.926;2023-10-09T19:11:01;3.45;;;2.10;;
43823;SDS011;29470;53.550;9.926;2023-10-09T19:16:29;6.43;;;2.70;;
43823;SDS011;29470;53.550;9.926;2023-10-09T19:21:36;4.32;;;2.80;;
43823;SDS011;29470;53.550;9.926;2023-10-09T19:26:39;6.28;;;4.03;;
43823;SDS011;29470;53.550;9.926;2023-10-09T19:31:46;8.50;;;4.47;;
43823;SDS011;29470;53.550;9.926;2023-10-09T19:36:50;6.38;;;4.03;;
43823;SDS011;29470;53.550;9.926;2023-10-09T19:41:53;5.30;;;3.40;;
43823;SDS011;29470;53.550;9.926;2023-10-09T19:46:56;7.78;;;3.47;;
43823;SDS011;29470;53.550;9.926;2023-10-09T19:52:00;4.53;;;2.75;;
43823;SDS011;29470;53.550;9.926;2023-10-09T19:57:03;7.57;;;3.53;;
43823;SDS011;29470;53.550;9.926;2023-10-09T20:02:09;10.50;;;5.63;;
43823;SDS011;29470;53.550;9.926;2023-10-09T20:07:17;4.88;;;3.20;;
43823;SDS011;29470;53.550;9.926;2023-10-09T20:12:20;5.15;;;3.60;;
43823;SDS011;29470;53.550;9.926;2023-10-09T20:17:23;7.22;;;3.30;;
43823;SDS011;29470;53.550;9.926;2023-10-09T20:22:27;6.78;;;3.58;;
43823;SDS011;29470;53.550;9.926;2023-10-09T20:27:30;10.55;;;5.00;;
43823;SDS011;29470;53.550;9.926;2023-10-09T20:32:34;5.15;;;3.50;;
43823;SDS011;29470;53.550;9.926;2023-10-09T20:37:40;7.47;;;2.83;;
43823;SDS011;29470;53.550;9.926;2023-10-09T20:42:44;6.18;;;2.78;;
43823;SDS011;29470;53.550;9.926;2023-10-09T20:47:49;4.70;;;2.83;;
43823;SDS011;29470;53.550;9.926;2023-10-09T20:52:57;3.45;;;2.40;;
43823;SDS011;29470;53.550;9.926;2023-10-09T20:58:00;4.05;;;2.40;;
43823;SDS011;29470;53.550;9.926;2023-10-09T21:03:05;7.85;;;2.60;;
43823;SDS011;29470;53.550;9.926;2023-10-09T21:08:10;6.03;;;3.40;;
43823;SDS011;29470;53.550;9.926;2023-10-09T21:13:14;6.43;;;2.97;;
43823;SDS011;29470;53.550;9.926;2023-10-09T21:18:17;12.18;;;4.13;;
43823;SDS011;29470;53.550;9.926;2023-10-09T21:23:22;8.10;;;4.22;;
43823;SDS011;29470;53.550;9.926;2023-10-09T21:28:25;9.23;;;4.07;;
43823;SDS011;29470;53.550;9.926;2023-10-09T21:33:27;10.88;;;4.70;;
43823;SDS011;29470;53.550;9.926;2023-10-09T21:38:33;11.40;;;4.93;;
43823;SDS011;29470;53.550;9.926;2023-10-09T21:43:36;12.70;;;4.75;;
43823;SDS011;29470;53.550;9.926;2023-10-09T21:48:39;11.20;;;4.63;;
43823;SDS011;29470;53.550;9.926;2023-10-09T21:53:45;10.73;;;4.82;;
43823;SDS011;29470;53.550;9.926;2023-10-09T21:58:48;8.15;;;4.43;;
43823;SDS011;29470;53.550;9.926;2023-10-09T22:03:53;9.38;;;4.28;;
43823;SDS011;29470;53.550;9.926;2023-10-09T22:08:57;9.77;;;4.88;;
43823;SDS011;29470;53.550;9.926;2023-10-09T22:14:00;6.68;;;4.55;;
43823;SDS011;29470;53.550;9.926;2023-10-09T22:19:03;8.98;;;3.97;;
43823;SDS011;29470;53.550;9.926;2023-10-09T22:24:19;8.75;;;3.97;;
43823;SDS011;29470;53.550;9.926;2023-10-09T22:29:22;10.85;;;5.10;;
43823;SDS011;29470;53.550;9.926;2023-10-09T22:34:29;10.45;;;4.93;;
43823;SDS011;29470;53.550;9.926;2023-10-09T22:39:36;13.10;;;5.90;;
43823;SDS011;29470;53.550;9.926;2023-10-09T22:44:43;9.10;;;5.22;;
43823;SDS011;29470;53.550;9.926;2023-10-09T22:49:46;12.38;;;5.28;;
43823;SDS011;29470;53.550;9.926;2023-10-09T22:54:58;9.07;;;4.57;;
43823;SDS011;29470;53.550;9.926;2023-10-09T23:00:07;11.63;;;4.85;;
43823;SDS011;29470;53.550;9.926;2023-10-09T23:05:27;8.13;;;4.72;;
43823;SDS011;29470;53.550;9.926;2023-10-09T23:10:34;8.07;;;4.07;;
43823;SDS011;29470;53.550;9.926;2023-10-09T23:15:52;7.90;;;4.10;;
43823;SDS011;29470;53.550;9.926;2023-10-09T23:21:07;10.55;;;4.72;;
43823;SDS011;29470;53.550;9.926;2023-10-09T23:26:25;10.10;;;3.97;;
43823;SDS011;29470;53.550;9.926;2023-10-09T23:31:34;8.85;;;3.90;;
43823;SDS011;29470;53.550;9.926;2023-10-09T23:36:48;8.52;;;4.18;;
43823;SDS011;29470;53.550;9.926;2023-10-09T23:41:57;9.10;;;4.03;;
43823;SDS011;29470;53.550;9.926;2023-10-09T23:47:01;9.82;;;4.30;;
43823;SDS011;29470;53.550;9.926;2023-10-09T23:52:11;10.18;;;4.25;;
43823;SDS011;29470;53.550;9.926;2023-10-09T23:57:16;11.65;;;4.70;;
